Time;durP1;ratioP1;P1;durP2;ratioP2;P2;SDS_P1;SDS_P2;PMS_P1;PMS_P2;Temp;Humidity;BMP_temperature;BMP_pressure;BME280_temperature;BME280_humidity;BME280_pressure;Samples;Min_cycle;Max_cycle;Signal;HPM_P1;HPM_P2
2022/12/07 00:01:04;;;;;;;1999.90;999.90;;;5.60;99.90;;;;;;5012911;28;20921;-70
2022/12/07 00:03:30;;;;;;;1999.90;999.90;;;5.60;99.90;;;;;;5012599;28;20206;-70
2022/12/07 00:05:59;;;;;;;1999.90;999.90;;;5.60;99.90;;;;;;5012538;28;20408;-70
2022/12/07 00:08:25;;;;;;;1999.90;999.90;;;5.70;99.90;;;;;;5012448;28;20234;-70
2022/12/07 00:10:50;;;;;;;1999.90;999.90;;;5.70;99.90;;;;;;5012442;28;20448;-70
2022/12/07 00:13:16;;;;;;;1999.90;999.90;;;5.70;99.90;;;;;;5012531;28;20681;-70
2022/12/07 00:15:42;;;;;;;1999.90;999.90;;;5.70;99.90;;;;;;5012594;28;20176;-70
2022/12/07 00:18:07;;;;;;;1999.90;999.90;;;5.70;99.90;;;;;;5012275;28;20587;-70
2022/12/07 00:20:33;;;;;;;1999.90;999.90;;;5.70;99.90;;;;;;5012466;28;20188;-70
2022/12/07 00:22:59;;;;;;;1999.90;999.90;;;5.70;99.90;;;;;;5012395;28;20177;-70
2022/12/07 00:25:25;;;;;;;1999.90;999.90;;;5.60;99.90;;;;;;5012369;28;20223;-70
2022/12/07 00:27:53;;;;;;;1999.90;999.90;;;5.60;99.90;;;;;;5012244;28;20589;-70
2022/12/07 00:30:19;;;;;;;1999.90;999.90;;;5.50;99.90;;;;;;5012347;28;20823;-70
2022/12/07 00:32:44;;;;;;;1999.90;999.90;;;5.50;99.90;;;;;;5012242;28;20416;-70
2022/12/07 00:35:10;;;;;;;1999.90;999.90;;;5.50;99.90;;;;;;5012292;28;20541;-70
2022/12/07 00:37:35;;;;;;;1999.90;999.90;;;5.50;99.90;;;;;;5011952;28;20251;-70
2022/12/07 00:40:01;;;;;;;1999.90;999.90;;;5.50;99.90;;;;;;5012190;28;20180;-70
2022/12/07 00:42:27;;;;;;;1999.90;999.90;;;5.50;99.90;;;;;;5012259;28;20565;-70
2022/12/07 00:44:52;;;;;;;1999.90;999.90;;;5.60;99.90;;;;;;5012094;28;20223;-70
2022/12/07 00:47:18;;;;;;;1999.90;999.90;;;5.70;99.90;;;;;;5011942;28;20517;-70
2022/12/07 00:49:43;;;;;;;1999.90;999.90;;;5.70;99.90;;;;;;5012079;28;20256;-70
2022/12/07 00:52:09;;;;;;;1999.90;999.90;;;5.60;99.90;;;;;;5012138;28;20232;-70
2022/12/07 00:54:34;;;;;;;1999.90;999.90;;;5.60;99.90;;;;;;5011917;28;20199;-70
2022/12/07 00:57:00;;;;;;;1999.90;999.90;;;5.60;99.90;;;;;;5011882;28;20169;-70
2022/12/07 00:59:25;;;;;;;1999.90;999.90;;;5.70;99.90;;;;;;5012161;28;20168;-70
2022/12/07 01:01:51;;;;;;;1999.90;999.90;;;5.70;99.90;;;;;;5012029;28;20256;-70
2022/12/07 01:04:16;;;;;;;1999.90;999.90;;;5.70;99.90;;;;;;5012289;28;20189;-70
2022/12/07 01:06:42;;;;;;;1999.90;999.90;;;5.70;99.90;;;;;;5015770;28;20647;-70
2022/12/07 01:09:08;;;;;;;1999.90;999.90;;;5.60;99.90;;;;;;5015756;28;20264;-70
2022/12/07 01:11:33;;;;;;;1999.90;999.90;;;5.60;99.90;;;;;;5015815;28;20192;-70
2022/12/07 01:14:00;;;;;;;1999.90;999.90;;;5.60;99.90;;;;;;5015759;28;20203;-70
2022/12/07 01:16:29;;;;;;;1999.90;999.90;;;5.60;99.90;;;;;;5015639;28;20161;-70
2022/12/07 01:18:56;;;;;;;1999.90;999.90;;;5.60;99.90;;;;;;5015647;28;20769;-70
2022/12/07 01:21:27;;;;;;;1999.90;999.90;;;5.60;99.90;;;;;;5015707;28;20408;-70
2022/12/07 01:23:53;;;;;;;1999.90;999.90;;;5.60;99.90;;;;;;5015592;28;20438;-70
2022/12/07 01:26:22;;;;;;;1999.90;999.90;;;5.60;99.90;;;;;;5015532;28;20408;-70
2022/12/07 01:28:48;;;;;;;1999.90;999.90;;;5.60;99.90;;;;;;5015321;28;20647;-69
2022/12/07 01:31:17;;;;;;;1999.90;999.90;;;5.50;99.90;;;;;;5015424;28;20458;-70
2022/12/07 01:33:45;;;;;;;1999.90;999.90;;;5.50;99.90;;;;;;5015405;28;20506;-70
2022/12/07 01:36:18;;;;;;;1999.90;999.90;;;5.50;99.90;;;;;;5015307;28;20410;-70
2022/12/07 01:38:44;;;;;;;1999.90;999.90;;;5.50;99.90;;;;;;5015198;28;20401;-70
2022/12/07 01:41:11;;;;;;;1999.90;999.90;;;5.50;99.90;;;;;;5015297;28;20403;-70
2022/12/07 01:43:36;;;;;;;1999.90;999.90;;;5.50;99.90;;;;;;5015185;28;20437;-70
2022/12/07 01:46:03;;;;;;;1999.90;999.90;;;5.50;99.90;;;;;;5015221;28;20404;-70
2022/12/07 01:48:37;;;;;;;1999.90;999.90;;;5.50;99.90;;;;;;5014960;28;20180;-70
2022/12/07 01:51:08;;;;;;;1999.90;999.90;;;5.50;99.90;;;;;;5015154;28;20459;-70
2022/12/07 01:53:37;;;;;;;1999.90;999.90;;;5.50;99.90;;;;;;5015009;28;20451;-70
2022/12/07 01:56:05;;;;;;;1999.90;999.90;;;5.50;99.90;;;;;;5013676;28;20498;-70
2022/12/07 01:58:31;;;;;;;1999.90;999.90;;;5.60;99.90;;;;;;5014785;28;20412;-70
2022/12/07 02:00:56;;;;;;;1999.90;999.90;;;5.60;99.90;;;;;;5014929;28;20403;-70
2022/12/07 02:03:27;;;;;;;1999.90;999.90;;;5.60;99.90;;;;;;5014831;28;20193;-70
2022/12/07 02:05:54;;;;;;;1999.90;999.90;;;5.50;99.90;;;;;;5014804;28;20231;-70
2022/12/07 02:08:20;;;;;;;1999.90;999.90;;;5.50;99.90;;;;;;5014646;28;20421;-70
2022/12/07 02:10:46;;;;;;;1999.90;999.90;;;5.50;99.90;;;;;;5014705;28;20447;-70
2022/12/07 02:13:24;;;;;;;1999.90;999.90;;;5.50;99.90;;;;;;5014632;28;20439;-70
2022/12/07 02:16:11;;;;;;;1999.90;999.90;;;5.50;99.90;;;;;;5014017;28;20247;-70
2022/12/07 02:18:55;;;;;;;1999.90;999.90;;;5.50;99.90;;;;;;5014466;28;20426;-70
2022/12/07 02:21:37;;;;;;;1999.90;999.90;;;5.40;99.90;;;;;;5014618;28;20400;-70
2022/12/07 02:24:19;;;;;;;1999.90;999.90;;;5.50;99.90;;;;;;5014764;28;20968;-70
2022/12/07 02:27:00;;;;;;;1999.90;999.90;;;5.40;99.90;;;;;;5015011;28;20407;-69
2022/12/07 02:29:49;;;;;;;1999.90;999.90;;;5.40;99.90;;;;;;5014391;28;20480;-69
2022/12/07 02:32:23;;;;;;;1999.90;999.90;;;5.40;99.90;;;;;;5014305;28;20877;-69
2022/12/07 02:34:53;;;;;;;1999.90;999.90;;;5.40;99.90;;;;;;5014311;28;20504;-69
2022/12/07 02:37:37;;;;;;;1999.90;999.90;;;5.40;99.90;;;;;;5014168;28;20796;-69
2022/12/07 02:40:14;;;;;;;1999.90;999.90;;;5.40;99.90;;;;;;5014258;28;20395;-69
2022/12/07 02:42:51;;;;;;;1999.90;999.90;;;5.30;99.90;;;;;;5014156;28;20414;-69
2022/12/07 02:45:20;;;;;;;1999.90;999.90;;;5.40;99.90;;;;;;5014217;28;20431;-69
2022/12/07 02:47:50;;;;;;;1999.90;999.90;;;5.40;99.90;;;;;;5013802;28;20400;-69
2022/12/07 02:50:19;;;;;;;1999.90;999.90;;;5.30;99.90;;;;;;5013974;28;20479;-69
2022/12/07 02:52:45;;;;;;;1999.90;999.90;;;5.40;99.90;;;;;;5013818;28;20491;-69
2022/12/07 02:55:12;;;;;;;1999.90;999.90;;;5.30;99.90;;;;;;5013852;28;20487;-69
2022/12/07 02:58:03;;;;;;;1999.90;999.90;;;5.30;99.90;;;;;;5013604;28;20173;-69
2022/12/07 03:00:35;;;;;;;1999.90;999.90;;;5.30;99.90;;;;;;5013857;28;20500;-69
2022/12/07 03:03:09;;;;;;;1999.90;999.90;;;5.30;99.90;;;;;;5013761;28;20450;-69
2022/12/07 03:06:06;;;;;;;1999.90;999.90;;;5.30;99.90;;;;;;5013776;28;20418;-69
2022/12/07 03:08:50;;;;;;;1999.90;999.90;;;5.30;99.90;;;;;;5013696;28;20486;-69
2022/12/07 03:11:25;;;;;;;1999.90;999.90;;;5.30;99.90;;;;;;5013543;28;20452;-70
2022/12/07 03:14:03;;;;;;;1999.90;999.90;;;5.20;99.90;;;;;;5013563;28;20416;-69
2022/12/07 03:16:46;;;;;;;1999.90;999.90;;;5.20;99.90;;;;;;5013687;28;20426;-69
2022/12/07 03:19:17;;;;;;;1999.90;999.90;;;5.20;99.90;;;;;;5013475;28;20407;-69
2022/12/07 03:21:59;;;;;;;1999.90;999.90;;;5.20;99.90;;;;;;5013615;28;20894;-69
2022/12/07 03:24:29;;;;;;;1999.90;999.90;;;5.30;99.90;;;;;;5013359;28;20797;-69
2022/12/07 03:27:13;;;;;;;1999.90;999.90;;;5.20;99.90;;;;;;5012495;28;20495;-69
2022/12/07 03:29:48;;;;;;;1999.90;999.90;;;5.30;99.90;;;;;;5013416;28;20415;-69
2022/12/07 03:32:20;;;;;;;1999.90;999.90;;;5.20;99.90;;;;;;5013213;28;20822;-69
2022/12/07 03:34:49;;;;;;;1999.90;999.90;;;5.20;99.90;;;;;;5013140;28;20420;-69
2022/12/07 03:37:32;;;;;;;1999.90;999.90;;;5.20;99.90;;;;;;5013207;28;20411;-69
2022/12/07 03:40:14;;;;;;;1999.90;999.90;;;5.10;99.90;;;;;;5013070;28;20761;-69
2022/12/07 03:42:40;;;;;;;1999.90;999.90;;;5.20;99.90;;;;;;5013182;28;20457;-69
2022/12/07 03:45:07;;;;;;;1999.90;999.90;;;5.10;99.90;;;;;;5013056;28;20400;-70
2022/12/07 03:47:36;;;;;;;1999.90;999.90;;;5.10;99.90;;;;;;5012835;28;20408;-70
2022/12/07 03:50:11;;;;;;;1999.90;999.90;;;5.10;99.90;;;;;;5012841;28;20412;-69
2022/12/07 03:52:55;;;;;;;1999.90;999.90;;;5.20;99.90;;;;;;5013030;28;20406;-69
2022/12/07 03:55:31;;;;;;;1999.90;999.90;;;5.20;99.90;;;;;;5012851;28;20416;-70
2022/12/07 03:58:02;;;;;;;1999.90;999.90;;;5.20;99.90;;;;;;5012594;28;20738;-69
2022/12/07 04:00:28;;;;;;;1999.90;999.90;;;5.20;99.90;;;;;;5012792;28;20404;-69
2022/12/07 04:02:55;;;;;;;1999.90;999.90;;;5.20;99.90;;;;;;5012720;28;20487;-69
2022/12/07 04:05:21;;;;;;;1999.90;999.90;;;5.20;99.90;;;;;;5012665;28;20466;-70
2022/12/07 04:07:46;;;;;;;1999.90;999.90;;;5.20;99.90;;;;;;5012410;28;20428;-69
2022/12/07 04:10:13;;;;;;;1999.90;999.90;;;5.20;99.90;;;;;;5012493;28;20399;-69
2022/12/07 04:12:38;;;;;;;1999.90;999.90;;;5.20;99.90;;;;;;5012635;28;20591;-69
2022/12/07 04:15:05;;;;;;;1999.90;999.90;;;5.20;99.90;;;;;;5012434;28;20463;-69
2022/12/07 04:17:30;;;;;;;1999.90;999.90;;;5.20;99.90;;;;;;5012293;28;20408;-69
2022/12/07 04:19:56;;;;;;;1999.90;999.90;;;5.20;99.90;;;;;;5012488;28;20427;-70
2022/12/07 04:22:21;;;;;;;1999.90;999.90;;;5.10;99.90;;;;;;5012479;28;20179;-70
2022/12/07 04:24:47;;;;;;;1999.90;999.90;;;5.20;99.90;;;;;;5012260;28;20320;-69
2022/12/07 04:27:13;;;;;;;1999.90;999.90;;;5.20;99.90;;;;;;5012178;28;20171;-69
2022/12/07 04:29:38;;;;;;;1999.90;999.90;;;5.20;99.90;;;;;;5012327;28;20173;-69
2022/12/07 04:32:04;;;;;;;1999.90;999.90;;;5.20;99.90;;;;;;5012230;28;20193;-69
2022/12/07 04:34:29;;;;;;;1999.90;999.90;;;5.20;99.90;;;;;;5012268;28;20674;-69
2022/12/07 04:36:55;;;;;;;1999.90;999.90;;;5.10;99.90;;;;;;5012122;28;20561;-69
2022/12/07 04:39:32;;;;;;;1999.90;999.90;;;5.10;99.90;;;;;;5011914;28;20215;-69
2022/12/07 04:41:58;;;;;;;1999.90;999.90;;;5.10;99.90;;;;;;5012290;28;20407;-69
2022/12/07 04:44:25;;;;;;;1999.90;999.90;;;5.00;99.90;;;;;;5012090;28;20432;-70
2022/12/07 04:46:52;;;;;;;1999.90;999.90;;;5.00;99.90;;;;;;5011978;28;20411;-69
2022/12/07 04:49:18;;;;;;;1999.90;999.90;;;4.90;99.90;;;;;;5012229;28;20901;-69
2022/12/07 04:51:44;;;;;;;1999.90;999.90;;;4.90;99.90;;;;;;5012065;28;20482;-70
2022/12/07 04:54:10;;;;;;;1999.90;999.90;;;4.80;99.90;;;;;;5011861;28;20475;-69
2022/12/07 04:56:37;;;;;;;1999.90;999.90;;;4.80;99.90;;;;;;5012060;28;20400;-69
2022/12/07 04:59:03;;;;;;;1999.90;999.90;;;4.80;99.90;;;;;;5011980;28;20400;-71
2022/12/07 05:01:29;;;;;;;1999.90;999.90;;;4.70;99.90;;;;;;5012145;28;20408;-70
2022/12/07 05:03:55;;;;;;;1999.90;999.90;;;4.70;99.90;;;;;;5011985;28;20427;-70
2022/12/07 05:06:20;;;;;;;1999.90;999.90;;;4.70;99.90;;;;;;5011966;28;20533;-70
2022/12/07 05:08:46;;;;;;;1999.90;999.90;;;4.70;99.90;;;;;;5011700;28;20173;-70
2022/12/07 05:11:37;;;;;;;1999.90;999.90;;;4.80;99.90;;;;;;5012071;28;20200;-69
2022/12/07 05:13:58;;;;;;;1999.90;999.90;;;4.80;99.90;;;;;;5011777;28;20502;-69
2022/12/07 05:16:24;;;;;;;1999.90;999.90;;;4.80;99.90;;;;;;5011783;28;20410;-69
2022/12/07 05:18:49;;;;;;;1999.90;999.90;;;4.80;99.90;;;;;;5011769;28;20170;-69
2022/12/07 05:21:15;;;;;;;1999.90;999.90;;;4.90;99.90;;;;;;5011846;28;20670;-70
2022/12/07 05:23:41;;;;;;;1999.90;999.90;;;4.90;99.90;;;;;;5011762;28;20197;-70
2022/12/07 05:26:06;;;;;;;1999.90;999.90;;;5.00;99.90;;;;;;5011750;28;20208;-70
2022/12/07 05:28:32;;;;;;;1999.90;999.90;;;5.00;99.90;;;;;;5011663;28;20181;-69
2022/12/07 05:30:57;;;;;;;1999.90;999.90;;;5.00;99.90;;;;;;5011771;28;20205;-70
2022/12/07 05:33:23;;;;;;;1999.90;999.90;;;5.00;99.90;;;;;;5011726;28;20678;-70
2022/12/07 05:35:48;;;;;;;1999.90;999.90;;;5.00;99.90;;;;;;5011720;28;20165;-69
2022/12/07 05:38:14;;;;;;;1999.90;999.90;;;4.90;99.90;;;;;;5011514;28;20169;-70
2022/12/07 05:40:39;;;;;;;1999.90;999.90;;;4.90;99.90;;;;;;5011779;28;20169;-69
2022/12/07 05:43:05;;;;;;;1999.90;999.90;;;4.90;99.90;;;;;;5011677;28;20563;-70
2022/12/07 05:45:31;;;;;;;1999.90;999.90;;;5.00;99.90;;;;;;5011674;28;20170;-69
2022/12/07 05:47:56;;;;;;;1999.90;999.90;;;5.00;99.90;;;;;;5011434;28;20666;-70
2022/12/07 05:50:22;;;;;;;1999.90;999.90;;;5.00;99.90;;;;;;5023954;28;20738;-70
2022/12/07 05:52:47;;;;;;;1999.90;999.90;;;4.90;99.90;;;;;;5034673;28;20188;-70
2022/12/07 05:55:13;;;;;;;1999.90;999.90;;;4.90;99.90;;;;;;5034879;28;20176;-69
2022/12/07 05:57:38;;;;;;;1999.90;999.90;;;4.90;99.90;;;;;;5034582;28;20567;-69
2022/12/07 06:00:05;;;;;;;1999.90;999.90;;;4.90;99.90;;;;;;5034785;28;20176;-69
2022/12/07 06:02:30;;;;;;;1999.90;999.90;;;4.90;99.90;;;;;;5034681;28;20222;-69
2022/12/07 06:04:56;;;;;;;1999.90;999.90;;;4.80;99.90;;;;;;5034601;28;20834;-69
2022/12/07 06:07:21;;;;;;;1999.90;999.90;;;4.80;99.90;;;;;;5034380;28;20174;-70
2022/12/07 06:09:47;;;;;;;1999.90;999.90;;;4.80;99.90;;;;;;5034481;28;20184;-69
2022/12/07 06:15:14;;;;;;;1999.90;999.90;;;4.80;99.90;;;;;;4992775;28;20208;-69
2022/12/07 06:17:40;;;;;;;1999.90;999.90;;;4.80;99.90;;;;;;5025571;28;20449;-69
2022/12/07 06:20:07;;;;;;;1999.90;999.90;;;4.80;99.90;;;;;;5034634;28;20172;-69
2022/12/07 06:22:33;;;;;;;1999.90;999.90;;;4.80;99.90;;;;;;5034304;28;20403;-70
2022/12/07 06:24:58;;;;;;;1999.90;999.90;;;4.80;99.90;;;;;;5034275;28;20438;-69
2022/12/07 06:27:24;;;;;;;1999.90;999.90;;;4.80;99.90;;;;;;5034034;28;20190;-70
2022/12/07 06:29:49;;;;;;;1999.90;999.90;;;4.80;99.90;;;;;;5034056;28;20176;-69
2022/12/07 06:32:15;;;;;;;1999.90;999.90;;;4.80;99.90;;;;;;5034210;28;20201;-69
2022/12/07 06:34:41;;;;;;;1999.90;999.90;;;4.80;99.90;;;;;;5034069;28;20274;-69
2022/12/07 06:37:06;;;;;;;1999.90;999.90;;;4.80;99.90;;;;;;5033796;28;20199;-69
2022/12/07 06:39:32;;;;;;;1999.90;999.90;;;4.90;99.90;;;;;;5033958;28;20173;-70
2022/12/07 06:41:58;;;;;;;1999.90;999.90;;;4.80;99.90;;;;;;5034109;28;20180;-69
2022/12/07 06:44:24;;;;;;;1999.90;999.90;;;4.80;99.90;;;;;;5033856;28;20243;-69
2022/12/07 06:46:50;;;;;;;1999.90;999.90;;;4.70;99.90;;;;;;5033962;28;20898;-69
2022/12/07 06:49:16;;;;;;;1999.90;999.90;;;4.70;99.90;;;;;;5033795;28;20415;-69
2022/12/07 06:51:42;;;;;;;1999.90;999.90;;;4.70;99.90;;;;;;5033668;28;20458;-70
2022/12/07 06:54:13;;;;;;;1999.90;999.90;;;4.60;99.90;;;;;;5033582;28;20581;-69
2022/12/07 06:56:38;;;;;;;1999.90;999.90;;;4.70;99.90;;;;;;5033646;28;20446;-68
2022/12/07 06:59:06;;;;;;;1999.90;999.90;;;4.70;99.90;;;;;;5033524;28;20407;-69
2022/12/07 07:01:32;;;;;;;1999.90;999.90;;;4.70;99.90;;;;;;5033766;28;20457;-69
2022/12/07 07:03:58;;;;;;;1999.90;999.90;;;4.70;99.90;;;;;;5033550;28;20983;-69
2022/12/07 07:06:24;;;;;;;1999.90;999.90;;;4.70;99.90;;;;;;5033373;28;20415;-69
2022/12/07 07:08:49;;;;;;;1999.90;999.90;;;4.60;99.90;;;;;;5033391;28;20180;-69
2022/12/07 07:11:15;;;;;;;1999.90;999.90;;;4.60;99.90;;;;;;5033378;28;20642;-69
2022/12/07 07:13:40;;;;;;;1999.90;999.90;;;4.60;99.90;;;;;;5033232;28;20188;-68
2022/12/07 07:16:07;;;;;;;1999.90;999.90;;;4.60;99.90;;;;;;5033474;28;20185;-70
2022/12/07 07:18:32;;;;;;;1999.90;999.90;;;4.60;99.90;;;;;;5033173;28;20176;-70
2022/12/07 07:20:58;;;;;;;1999.90;999.90;;;4.60;99.90;;;;;;5033338;28;20784;-69
2022/12/07 07:23:24;;;;;;;1999.90;999.90;;;4.60;99.90;;;;;;5033206;28;20683;-69
2022/12/07 07:25:50;;;;;;;1999.90;999.90;;;4.60;99.90;;;;;;5033172;28;20235;-69
2022/12/07 07:28:16;;;;;;;1999.90;999.90;;;4.60;99.90;;;;;;5032890;28;20439;-69
2022/12/07 07:30:42;;;;;;;1999.90;999.90;;;4.60;99.90;;;;;;5033024;28;20283;-69
2022/12/07 07:33:07;;;;;;;1999.90;999.90;;;4.60;99.90;;;;;;5032973;28;20467;-69
2022/12/07 07:35:34;;;;;;;1999.90;999.90;;;4.60;99.90;;;;;;5032959;28;20242;-69
2022/12/07 07:38:00;;;;;;;1999.90;999.90;;;4.60;99.90;;;;;;5032673;28;20172;-69
2022/12/07 07:40:27;;;;;;;1999.90;999.90;;;4.60;99.90;;;;;;5032920;28;20904;-69
2022/12/07 07:42:53;;;;;;;1999.90;999.90;;;4.60;99.90;;;;;;5032651;28;20173;-70
2022/12/07 07:45:21;;;;;;;1999.90;999.90;;;4.50;99.90;;;;;;5032704;28;20489;-69
2022/12/07 07:47:47;;;;;;;1999.90;999.90;;;4.50;99.90;;;;;;5032470;28;20444;-69
2022/12/07 07:50:13;;;;;;;1999.90;999.90;;;4.60;99.90;;;;;;5032923;28;20901;-69
2022/12/07 07:52:39;;;;;;;1999.90;999.90;;;4.60;99.90;;;;;;5032671;28;20411;-70
2022/12/07 07:55:05;;;;;;;1999.90;999.90;;;4.60;99.90;;;;;;5032484;28;20960;-70
2022/12/07 07:57:31;;;;;;;1999.90;999.90;;;4.60;99.90;;;;;;5032254;28;20432;-70
2022/12/07 07:59:57;;;;;;;1999.90;999.90;;;4.70;99.90;;;;;;5032479;28;20865;-69
2022/12/07 08:02:23;;;;;;;1999.90;999.90;;;4.70;99.90;;;;;;5032499;28;20172;-69
2022/12/07 08:04:48;;;;;;;1999.90;999.90;;;4.80;99.90;;;;;;5032487;28;20196;-70
2022/12/07 08:07:15;;;;;;;1999.90;999.90;;;4.80;99.90;;;;;;5032200;28;20503;-69
2022/12/07 08:09:40;;;;;;;1999.90;999.90;;;4.90;99.90;;;;;;5032359;28;20176;-69
2022/12/07 08:12:07;;;;;;;1999.90;999.90;;;4.90;99.90;;;;;;5032240;28;20450;-69
2022/12/07 08:14:33;;;;;;;1999.90;999.90;;;5.00;99.90;;;;;;5031788;28;20423;-69
2022/12/07 08:16:59;;;;;;;1999.90;999.90;;;5.00;99.90;;;;;;5032053;28;20418;-69
2022/12/07 08:19:25;;;;;;;1999.90;999.90;;;5.00;99.90;;;;;;5032063;28;20403;-70
2022/12/07 08:21:50;;;;;;;1999.90;999.90;;;5.10;99.90;;;;;;5032229;28;20168;-70
2022/12/07 08:24:16;;;;;;;1999.90;999.90;;;5.10;99.90;;;;;;5032121;28;20180;-70
2022/12/07 08:26:42;;;;;;;1999.90;999.90;;;5.20;99.90;;;;;;5032300;28;20176;-69
2022/12/07 08:29:08;;;;;;;1999.90;999.90;;;5.20;99.90;;;;;;5032040;28;20176;-70
2022/12/07 08:31:33;;;;;;;1999.90;999.90;;;5.30;99.90;;;;;;5031975;28;20799;-69
2022/12/07 08:33:59;;;;;;;1999.90;999.90;;;5.30;99.90;;;;;;5031935;28;20181;-70
2022/12/07 08:36:25;;;;;;;1999.90;999.90;;;5.30;99.90;;;;;;5031642;28;20176;-69
2022/12/07 08:38:50;;;;;;;1999.90;999.90;;;5.40;99.90;;;;;;5031393;28;20172;-70
2022/12/07 08:41:16;;;;;;;1999.90;999.90;;;5.50;99.90;;;;;;5031944;28;20291;-69
2022/12/07 08:43:42;;;;;;;1999.90;999.90;;;5.60;99.90;;;;;;5031881;28;20184;-69
2022/12/07 08:46:21;;;;;;;1999.90;999.90;;;5.70;99.90;;;;;;5031844;28;20944;-69
2022/12/07 08:48:51;;;;;;;1999.90;999.90;;;5.80;99.90;;;;;;5031690;28;20186;-70
2022/12/07 08:51:17;;;;;;;1999.90;999.90;;;5.90;99.90;;;;;;5031783;28;20581;-70
2022/12/07 08:53:44;;;;;;;1999.90;999.90;;;5.80;99.90;;;;;;5031644;28;20879;-69
2022/12/07 08:56:10;;;;;;;1999.90;999.90;;;5.80;99.90;;;;;;5031746;28;20403;-69
2022/12/07 08:58:38;;;;;;;1999.90;999.90;;;5.80;99.90;;;;;;5031616;28;20403;-69
2022/12/07 09:01:04;;;;;;;1999.90;999.90;;;5.70;99.90;;;;;;5031954;28;20542;-69
2022/12/07 09:03:30;;;;;;;1999.90;999.90;;;5.70;99.90;;;;;;5031611;28;20438;-70
2022/12/07 09:05:56;;;;;;;1999.90;999.90;;;5.80;99.90;;;;;;5031666;28;20824;-69
2022/12/07 09:08:25;;;;;;;1999.90;999.90;;;5.90;99.90;;;;;;5031499;28;20751;-69
2022/12/07 09:10:51;;;;;;;1999.90;999.90;;;5.90;99.90;;;;;;5031579;28;20196;-69
2022/12/07 09:13:17;;;;;;;1999.90;999.90;;;5.90;99.90;;;;;;5031717;28;20423;-69
2022/12/07 09:15:42;;;;;;;1999.90;999.90;;;5.90;99.90;;;;;;5031532;28;20168;-69
2022/12/07 09:18:08;;;;;;;1999.90;999.90;;;5.90;99.90;;;;;;5030889;28;20272;-69
2022/12/07 09:20:33;;;;;;;1999.90;999.90;;;5.90;99.90;;;;;;5031647;28;20179;-69
2022/12/07 09:22:59;;;;;;;1999.90;999.90;;;5.90;99.90;;;;;;5031465;28;20279;-69
2022/12/07 09:25:25;;;;;;;1999.90;999.90;;;5.90;99.90;;;;;;5032103;28;20172;-69
2022/12/07 09:27:58;;;;;;;1999.90;999.90;;;5.90;99.90;;;;;;5035089;28;20172;-69
2022/12/07 09:30:24;;;;;;;1999.90;999.90;;;6.00;99.90;;;;;;5035414;28;20173;-70
2022/12/07 09:32:49;;;;;;;1999.90;999.90;;;6.10;99.90;;;;;;5035179;28;20472;-69
2022/12/07 09:35:15;;;;;;;1999.90;999.90;;;6.20;99.90;;;;;;5035184;28;20403;-69
2022/12/07 09:37:41;;;;;;;1999.90;999.90;;;6.20;99.90;;;;;;5034944;28;20538;-70
2022/12/07 09:40:07;;;;;;;1999.90;999.90;;;6.30;99.90;;;;;;5035364;28;20718;-69
2022/12/07 09:42:39;;;;;;;1999.90;999.90;;;6.40;99.90;;;;;;5035124;28;20204;-69
2022/12/07 09:45:11;;;;;;;1999.90;999.90;;;6.50;99.90;;;;;;5035104;28;20434;-69
2022/12/07 09:47:37;;;;;;;1999.90;999.90;;;6.50;99.90;;;;;;5034743;28;20423;-69
2022/12/07 09:50:07;;;;;;;1999.90;999.90;;;6.50;99.90;;;;;;5034996;28;20829;-69
2022/12/07 09:52:33;;;;;;;1999.90;999.90;;;6.50;99.90;;;;;;5034822;28;20215;-69
2022/12/07 09:54:58;;;;;;;1999.90;999.90;;;6.50;99.90;;;;;;5034756;28;20827;-69
2022/12/07 09:57:31;;;;;;;1999.90;999.90;;;6.40;99.90;;;;;;5034649;28;20403;-70
2022/12/07 10:00:02;;;;;;;1999.90;999.90;;;6.50;99.90;;;;;;5034746;28;20237;-70
2022/12/07 10:02:41;;;;;;;1999.90;999.90;;;6.60;99.90;;;;;;5031113;28;20916;-69
2022/12/07 10:05:13;;;;;;;1999.90;999.90;;;6.70;99.90;;;;;;5015096;28;20446;-67
2022/12/07 10:07:38;;;;;;;1999.90;999.90;;;6.70;99.90;;;;;;5014463;28;20453;-68
2022/12/07 10:10:13;;;;;;;1999.90;999.90;;;6.80;99.90;;;;;;5015041;28;20424;-68
2022/12/07 10:12:57;;;;;;;1999.90;999.90;;;6.80;99.90;;;;;;5013492;28;20224;-69
2022/12/07 10:15:23;;;;;;;1999.90;999.90;;;6.80;99.90;;;;;;5015051;28;20399;-68
2022/12/07 10:17:51;;;;;;;1999.90;999.90;;;6.80;99.90;;;;;;5014458;28;20400;-67
2022/12/07 10:20:24;;;;;;;1999.90;999.90;;;6.80;99.90;;;;;;5014454;28;20901;-69
2022/12/07 10:23:02;;;;;;;1999.90;999.90;;;6.80;99.90;;;;;;5014385;28;20411;-68
2022/12/07 10:25:38;;;;;;;1999.90;999.90;;;6.80;99.90;;;;;;5014420;28;20466;-68
2022/12/07 10:28:17;;;;;;;1999.90;999.90;;;6.80;99.90;;;;;;5014565;28;20411;-69
2022/12/07 10:31:14;;;;;;;1999.90;999.90;;;6.70;99.90;;;;;;5014282;28;20466;-70
2022/12/07 10:33:55;;;;;;;1999.90;999.90;;;6.80;99.90;;;;;;5010675;28;20478;-68
2022/12/07 10:36:24;;;;;;;1999.90;999.90;;;7.00;99.90;;;;;;5013485;28;20918;-68
2022/12/07 10:39:03;;;;;;;1999.90;999.90;;;7.00;99.90;;;;;;5013554;28;20419;-68
2022/12/07 10:41:29;;;;;;;1999.90;999.90;;;7.00;99.90;;;;;;5013574;28;20430;-68
2022/12/07 10:43:57;;;;;;;1999.90;999.90;;;7.10;99.90;;;;;;5013666;28;20993;-68
2022/12/07 10:46:44;;;;;;;1999.90;999.90;;;7.00;99.90;;;;;;5013405;28;20487;-68
2022/12/07 10:49:21;;;;;;;1999.90;999.90;;;6.90;99.90;;;;;;5013132;28;20403;-68
2022/12/07 10:52:14;;;;;;;1999.90;999.90;;;6.70;99.90;;;;;;5013516;28;20482;-68
2022/12/07 10:54:55;;;;;;;1999.90;999.90;;;6.60;99.90;;;;;;5013491;28;20969;-68
2022/12/07 10:57:36;;;;;;;1999.90;999.90;;;6.60;99.90;;;;;;5012962;28;20440;-69
2022/12/07 11:00:17;;;;;;;1999.90;999.90;;;6.60;99.90;;;;;;5013630;28;20767;-69
2022/12/07 11:03:05;;;;;;;1999.90;999.90;;;6.50;99.90;;;;;;5013016;28;20404;-69
2022/12/07 11:05:50;;;;;;;1999.90;999.90;;;6.60;99.90;;;;;;5013557;28;20430;-69
2022/12/07 11:08:41;;;;;;;1999.90;999.90;;;6.60;99.90;;;;;;5013249;28;20400;-69
2022/12/07 11:11:25;;;;;;;1999.90;999.90;;;6.70;99.90;;;;;;5012521;28;20474;-69
2022/12/07 11:14:04;;;;;;;1999.90;999.90;;;6.70;99.90;;;;;;5013244;28;20943;-69
2022/12/07 11:16:51;;;;;;;1999.90;999.90;;;6.70;99.90;;;;;;5013274;28;20407;-69
2022/12/07 11:19:51;;;;;;;1999.90;999.90;;;6.70;99.90;;;;;;5012612;28;20396;-70
2022/12/07 11:22:53;;;;;;;1999.90;999.90;;;6.70;99.90;;;;;;5013026;28;20963;-69
2022/12/07 11:25:52;;;;;;;1999.90;999.90;;;6.70;99.90;;;;;;5012659;28;20805;-69
2022/12/07 11:28:50;;;;;;;1999.90;999.90;;;6.70;99.90;;;;;;5012681;28;20437;-69
2022/12/07 11:31:48;;;;;;;1999.90;999.90;;;6.60;99.90;;;;;;5012697;28;20800;-69
2022/12/07 11:34:20;;;;;;;1999.90;999.90;;;6.50;99.90;;;;;;4996683;28;20491;-69
2022/12/07 11:36:51;;;;;;;1999.90;999.90;;;6.40;99.90;;;;;;5012677;28;20408;-69
2022/12/07 11:39:30;;;;;;;1999.90;999.90;;;6.30;99.90;;;;;;5012749;28;20902;-69
2022/12/07 11:42:03;;;;;;;1999.90;999.90;;;6.30;99.90;;;;;;5012213;28;20410;-69
2022/12/07 11:44:53;;;;;;;1999.90;999.90;;;6.30;99.90;;;;;;5012402;28;20439;-69
2022/12/07 11:47:45;;;;;;;1999.90;999.90;;;6.20;99.90;;;;;;5011995;28;20455;-69
2022/12/07 11:50:35;;;;;;;1999.90;999.90;;;6.20;99.90;;;;;;5012144;28;20474;-69
2022/12/07 11:53:33;;;;;;;1999.90;999.90;;;6.20;99.90;;;;;;5012438;28;20418;-69
2022/12/07 11:56:10;;;;;;;1999.90;999.90;;;6.20;99.90;;;;;;5012025;28;20454;-69
2022/12/07 11:58:55;;;;;;;1999.90;999.90;;;6.30;99.90;;;;;;5012459;28;20411;-69
2022/12/07 12:01:34;;;;;;;1999.90;999.90;;;6.40;99.90;;;;;;5012384;28;20440;-69
2022/12/07 12:04:08;;;;;;;1999.90;999.90;;;6.50;99.90;;;;;;5012151;28;20412;-69
2022/12/07 12:06:37;;;;;;;1999.90;999.90;;;6.40;99.90;;;;;;5012281;28;20410;-69
2022/12/07 12:09:23;;;;;;;1999.90;999.90;;;6.30;99.90;;;;;;5011730;28;20494;-69
2022/12/07 12:12:14;;;;;;;1999.90;999.90;;;6.20;99.90;;;;;;5012068;28;20949;-69
2022/12/07 12:14:51;;;;;;;1999.90;999.90;;;6.20;99.90;;;;;;5012153;28;20419;-69
2022/12/07 12:17:32;;;;;;;1999.90;999.90;;;6.30;99.90;;;;;;5011609;28;20438;-69
2022/12/07 12:20:16;;;;;;;1999.90;999.90;;;6.30;99.90;;;;;;5012055;28;20400;-69
2022/12/07 12:22:46;;;;;;;1999.90;999.90;;;6.30;99.90;;;;;;5011789;28;20399;-69
2022/12/07 12:25:37;;;;;;;1999.90;999.90;;;6.30;99.90;;;;;;5011555;28;20490;-69
2022/12/07 12:28:03;;;;;;;1999.90;999.90;;;6.40;99.90;;;;;;5011872;28;20466;-69